• Join FlightAware (Why Join?)
  • Login
  • US Flag 
01:23AM EDT


 

Airport Tracker/Info


-or-


 

Live Flight TrackerFlight Track Log ✈ EJA361 ✈ 22-Jun-2013 ✈ 6S5 - KSLC

Flight Track Log - Related Links

Times and Time Zones

All times are in EDT time to prevent confusion due to time zone crossing. See the EJA361 flight status page for this flight to view local times or setup timezone preferences in your user account.

Time Position Orientation Groundspeed Altitude Reporting Facility
EDT Latitude Longitude Course Direction KTS MPH feet Rate Location/Type
12:57PM 46.3214 -114.1225 165° South 225 259 8,900  Level Salt Lake Center
12:58PM 46.3567 -114.0536 53° Northeast 280 322 12,900 3,960 Climbing Salt Lake Center
12:59PM 46.2756 -113.9919 152° Southeast 300 345 17,100 3,240 Climbing Salt Lake Center
01:01PM 45.6531 -113.8412 164° South  Level FlightAware Approximate
01:01PM 46.1844 -113.9508 163° South 346 398 19,600  Level Salt Lake Center
01:02PM 45.5535 -113.7950 165° South  Level FlightAware Approximate
01:02PM 46.0894 -113.9144 165° South 395 455 20,000  Level Salt Lake Center
01:03PM 45.4520 -113.7570 165° South  Level FlightAware Approximate
01:03PM 45.9581 -113.8606 164° South 409 471 22,000  Level Salt Lake Center
01:04PM 45.8450 -113.8122 163° South 421 484 25,000 2,880 Climbing Salt Lake Center
01:05PM 45.7311 -113.7661 164° South 425 489 28,000 2,460 Climbing Salt Lake Center
01:06PM 45.6164 -113.7192 164° South 429 494 30,200 1,440 Climbing Salt Lake Center
01:07PM 45.4881 -113.6672 164° South 450 518 31,000 360 Climbing Salt Lake Center
01:08PM 45.3425 -113.6072 164° South 480 552 31,000  Level Salt Lake Center
01:09PM 45.2128 -113.5558 164° South 478 550 31,000  Level Salt Lake Center
01:10PM 45.0925 -113.5075 164° South 472 543 31,000  Level Salt Lake Center
01:11PM 44.9536 -113.4519 164° South 468 539 31,000  Level Salt Lake Center
01:12PM 44.8331 -113.4042 164° South 469 540 31,000  Level Salt Lake Center
01:13PM 44.6922 -113.3483 164° South 470 541 31,000  Level Salt Lake Center
01:14PM 44.5686 -113.2989 164° South 480 552 31,000  Level Salt Lake Center
01:15PM 44.4244 -113.2425 164° South 482 555 31,000  Level Salt Lake Center
01:16PM 44.2983 -113.1931 164° South 488 562 31,000  Level Salt Lake Center
01:17PM 44.1717 -113.1450 165° South 491 565 31,000 -300 Level Salt Lake Center
01:18PM 44.0269 -113.0878 164° South 487 560 30,400 -540 Descending Salt Lake Center
01:19PM 43.9028 -113.0408 165° South 483 556 30,000 -240 Descending Salt Lake Center
01:20PM 43.7594 -112.9856 164° South 479 551 30,000  Level Salt Lake Center
01:21PM 43.6364 -112.9375 164° South 479 551 30,000  Level Salt Lake Center
01:22PM 43.4942 -112.8839 165° South 476 548 30,000  Level Salt Lake Center
01:23PM 43.3731 -112.8378 165° South 473 544 30,000  Level Salt Lake Center
01:24PM 43.2319 -112.7858 165° South 471 542 30,000  Level Salt Lake Center
01:25PM 43.1119 -112.7417 165° South 469 540 30,000  Level Salt Lake Center
01:26PM 42.9700 -112.6886 165° South 472 543 30,000  Level Salt Lake Center
01:27PM 42.8478 -112.6436 165° South 474 545 30,000  Level Salt Lake Center
01:28PM 42.7033 -112.6008 168° South 476 548 30,000  Level Salt Lake Center
01:29PM 42.5828 -112.5753 171° South 476 548 30,000  Level Salt Lake Center
01:30PM 42.4536 -112.5678 178° South 466 536 30,000  Level Salt Lake Center
01:31PM 42.3275 -112.5547 176° South 459 528 30,000 -300 Level Salt Lake Center
01:33PM 42.1742 -112.5428 177° South 462 532 29,400 -1,500 Descending Salt Lake Center
01:34PM 42.0503 -112.5322 176° South 451 519 27,000 -2,280 Descending Salt Lake Center
01:35PM 41.9300 -112.5217 176° South 438 504 24,700 -2,160 Descending Salt Lake Center
01:36PM 41.8133 -112.5128 177° South 423 487 22,500 -2,220 Descending Salt Lake Center
01:36PM 41.7156 -112.4986 174° South 419 482 20,600 -2,400 Descending Salt Lake Center
01:37PM 41.6300 -112.4900 176° South 406 467 18,900 -2,340 Descending Salt Lake Center
01:38PM 41.5678 -112.4911 181° South 395 455 17,700 -1,620 Descending Salt Lake Center
01:39PM 41.4683 -112.4350 157° South 403 464 16,400 -1,500 Descending Salt Lake Center
01:39PM 41.4206 -112.3947 148° Southeast 391 450 15,400 -1,560 Descending Salt Lake Center
01:40PM 41.3214 -112.3253 152° Southeast 382 440 14,000 -1,200 Descending Salt Lake Center
01:41PM 41.2831 -112.3019 155° Southeast 377 434 13,600 -660 Descending Salt Lake Center
01:42PM 41.1939 -112.2381 152° Southeast 368 423 13,000 -300 Descending Salt Lake Center
01:43PM 41.1083 -112.1711 149° Southeast 360 414 13,000 -180 Level Salt Lake Center
01:44PM 41.0000 -112.1303 164° South 349 402 12,700 -1,020 Descending Salt Lake Center
01:45PM 40.9078 -112.1108 171° South 340 391 11,000 -840 Descending Salt Lake Center
01:46PM 40.8342 -112.1011 174° South 249 287 11,000 -180 Level Salt Lake Center
01:47PM 40.7700 -112.0886 172° South 235 270 10,700 -660 Descending Salt Lake Center
01:48PM 40.7092 -112.0744 170° South 223 257 9,700 -1,080 Descending Salt Lake Center
01:49PM 40.6358 -112.0581 170° South 224 258 8,500 -780 Descending Salt Lake Center
01:50PM 40.6106 -111.9992 119° Southeast 218 251 8,200 -840 Descending Salt Lake Center
01:51PM 40.6500 -111.9497 44° Northeast 206 237 6,800 -1,140 Descending Salt Lake Center
01:52PM 40.7003 -111.9542 356° North 181 208 5,900 -900 Descending Salt Lake Center
01:53PM 40.7381 -111.9606 353° North 141 162 5,000 -840 Descending Salt Lake Center
01:54PM 40.7775 -111.9619 358° North 118 136 4,200 -780 Descending Salt Lake Center
01:56PM 40.7833 -111.9667 23° Northeast  Level FlightAware Approximate